Time;durP1;ratioP1;P1;durP2;ratioP2;P2;SDS_P1;SDS_P2;PMS_P1;PMS_P2;Temp;Humidity;BMP_temperature;BMP_pressure;BME280_temperature;BME280_humidity;BME280_pressure;Samples;Min_cycle;Max_cycle;Signal;HPM_P1;HPM_P2
2023/07/30 00:00:24;;;;;;;;;;;;;;;22.84;100.00;99354.09;5070660;28;19920;-74
2023/07/30 00:02:50;;;;;;;;;;;;;;;22.83;100.00;99346.22;5070223;28;19920;-73
2023/07/30 00:05:15;;;;;;;;;;;;;;;22.85;100.00;99336.88;5069203;28;19927;-73
2023/07/30 00:07:40;;;;;;;;;;;;;;;22.83;100.00;99322.03;5068620;28;19928;-74
2023/07/30 00:10:06;;;;;;;;;;;;;;;22.83;100.00;99322.03;5070813;28;19947;-73
2023/07/30 00:12:33;;;;;;;;;;;;;;;22.80;100.00;99322.44;5065014;28;20277;-73
2023/07/30 00:14:58;;;;;;;;;;;;;;;22.76;100.00;99318.59;5070092;28;19943;-73
2023/07/30 00:17:24;;;;;;;;;;;;;;;22.69;100.00;99320.50;5070700;28;20008;-74
2023/07/30 00:19:49;;;;;;;;;;;;;;;22.63;100.00;99321.41;5069305;28;20011;-74
2023/07/30 00:22:15;;;;;;;;;;;;;;;22.63;100.00;99327.59;5068932;28;19927;-74
2023/07/30 00:24:40;;;;;;;;;;;;;;;22.61;100.00;99335.09;5066097;28;19952;-74
2023/07/30 00:27:06;;;;;;;;;;;;;;;22.55;100.00;99327.94;5063058;28;19921;-74
2023/07/30 00:29:31;;;;;;;;;;;;;;;22.57;100.00;99330.38;5070297;28;19985;-73
2023/07/30 00:31:56;;;;;;;;;;;;;;;22.57;100.00;99327.69;5065083;28;20024;-73
2023/07/30 00:34:22;;;;;;;;;;;;;;;22.58;100.00;99329.34;5067284;28;19921;-74
2023/07/30 00:36:47;;;;;;;;;;;;;;;22.54;100.00;99325.47;5066692;28;19921;-73
2023/07/30 00:39:13;;;;;;;;;;;;;;;22.56;100.00;99323.38;5072013;28;20045;-74
2023/07/30 00:41:38;;;;;;;;;;;;;;;22.58;100.00;99318.59;5064354;28;20017;-73
2023/07/30 00:44:04;;;;;;;;;;;;;;;22.56;100.00;99315.31;5070230;28;19931;-74
2023/07/30 00:46:30;;;;;;;;;;;;;;;22.45;100.00;99325.75;5034395;28;20387;-73
2023/07/30 00:48:56;;;;;;;;;;;;;;;22.39;100.00;99342.78;5069694;28;19932;-72
2023/07/30 00:51:22;;;;;;;;;;;;;;;22.43;100.00;99337.81;5070360;28;19920;-73
2023/07/30 00:53:48;;;;;;;;;;;;;;;22.43;100.00;99322.50;5068440;28;20323;-74
2023/07/30 00:56:14;;;;;;;;;;;;;;;22.45;100.00;99312.31;5067238;28;19931;-73
2023/07/30 00:58:40;;;;;;;;;;;;;;;22.46;100.00;99311.28;5050031;28;20485;-73
2023/07/30 01:01:06;;;;;;;;;;;;;;;22.39;100.00;99312.38;5066448;28;20296;-73
2023/07/30 01:03:32;;;;;;;;;;;;;;;22.40;100.00;99317.53;5067316;28;19929;-73
2023/07/30 01:05:57;;;;;;;;;;;;;;;22.37;100.00;99312.63;5070282;28;19921;-73
2023/07/30 01:08:23;;;;;;;;;;;;;;;22.39;100.00;99313.22;5063656;28;20415;-72
2023/07/30 01:10:48;;;;;;;;;;;;;;;22.39;100.00;99309.69;5063924;28;19920;-74
2023/07/30 01:13:15;;;;;;;;;;;;;;;22.38;100.00;99308.88;5071284;28;19928;-74
2023/07/30 01:15:41;;;;;;;;;;;;;;;22.38;100.00;99325.00;5062159;28;19963;-74
2023/07/30 01:18:06;;;;;;;;;;;;;;;22.39;100.00;99315.91;5050629;28;19966;-74
2023/07/30 01:20:32;;;;;;;;;;;;;;;22.38;100.00;99325.00;5067650;28;20015;-74
2023/07/30 01:22:58;;;;;;;;;;;;;;;22.38;100.00;99314.25;5069476;28;20324;-74
2023/07/30 01:25:24;;;;;;;;;;;;;;;22.38;100.00;99325.00;5069456;28;19932;-75
2023/07/30 01:27:52;;;;;;;;;;;;;;;22.37;100.00;99326.06;5068139;28;19921;-74
2023/07/30 01:30:19;;;;;;;;;;;;;;;22.34;100.00;99339.13;5069276;28;20268;-74
2023/07/30 01:32:46;;;;;;;;;;;;;;;22.29;100.00;99342.50;5068240;28;19964;-73
2023/07/30 01:35:13;;;;;;;;;;;;;;;22.32;100.00;99352.81;5068113;28;20049;-73
2023/07/30 01:37:39;;;;;;;;;;;;;;;22.31;100.00;99355.72;5071560;28;20277;-73
2023/07/30 01:40:05;;;;;;;;;;;;;;;22.31;100.00;99351.16;5065305;28;20357;-73
2023/07/30 01:42:31;;;;;;;;;;;;;;;22.27;100.00;99355.31;5052150;28;20024;-73
2023/07/30 01:44:57;;;;;;;;;;;;;;;22.30;100.00;99348.69;5048920;28;19920;-73
2023/07/30 01:47:22;;;;;;;;;;;;;;;22.28;100.00;99356.16;5068757;28;19916;-73
2023/07/30 01:49:48;;;;;;;;;;;;;;;22.26;100.00;99348.34;5068995;28;19928;-73
2023/07/30 01:52:13;;;;;;;;;;;;;;;22.28;100.00;99343.53;5066815;28;19932;-73
2023/07/30 01:54:39;;;;;;;;;;;;;;;22.23;100.00;99343.38;5066468;28;19943;-73
2023/07/30 01:57:05;;;;;;;;;;;;;;;22.22;100.00;99340.91;5070520;28;20277;-73
2023/07/30 01:59:30;;;;;;;;;;;;;;;22.16;100.00;99342.63;5046348;28;19927;-73
2023/07/30 02:01:56;;;;;;;;;;;;;;;22.11;100.00;99336.28;5067711;28;19971;-73
2023/07/30 02:04:21;;;;;;;;;;;;;;;21.96;100.00;99333.97;5066260;28;19928;-74
2023/07/30 02:06:47;;;;;;;;;;;;;;;21.89;100.00;99333.16;5047618;28;19928;-73
2023/07/30 02:09:12;;;;;;;;;;;;;;;21.94;100.00;99327.94;5068239;28;19956;-72
2023/07/30 02:11:37;;;;;;;;;;;;;;;21.97;100.00;99330.22;5067307;28;19928;-73
2023/07/30 02:14:03;;;;;;;;;;;;;;;21.93;100.00;99331.66;5047571;28;20385;-73
2023/07/30 02:16:28;;;;;;;;;;;;;;;21.84;100.00;99343.75;5052010;28;20245;-74
2023/07/30 02:18:54;;;;;;;;;;;;;;;21.86;100.00;99344.34;5067131;28;19928;-75
2023/07/30 02:21:19;;;;;;;;;;;;;;;21.83;100.00;99347.47;5069219;28;20371;-73
2023/07/30 02:23:45;;;;;;;;;;;;;;;21.80;100.00;99343.34;5065172;28;19920;-73
2023/07/30 02:26:10;;;;;;;;;;;;;;;21.80;100.00;99345.22;5067988;28;19927;-74
2023/07/30 02:28:36;;;;;;;;;;;;;;;21.75;100.00;99345.88;5067464;28;20017;-74
2023/07/30 02:31:01;;;;;;;;;;;;;;;21.79;100.00;99338.22;5070406;28;20334;-74
2023/07/30 02:33:26;;;;;;;;;;;;;;;21.75;100.00;99334.31;5047387;28;19920;-74
2023/07/30 02:35:52;;;;;;;;;;;;;;;21.82;100.00;99333.22;5069287;28;19920;-73
2023/07/30 02:38:17;;;;;;;;;;;;;;;21.84;100.00;99333.00;5066554;28;19928;-74
2023/07/30 02:40:43;;;;;;;;;;;;;;;21.82;100.00;99329.72;5068327;28;19950;-73
2023/07/30 02:43:09;;;;;;;;;;;;;;;21.82;100.00;99335.09;5068509;28;20007;-73
2023/07/30 02:45:34;;;;;;;;;;;;;;;21.82;100.00;99335.09;5067213;28;19921;-74
2023/07/30 02:47:59;;;;;;;;;;;;;;;21.76;100.00;99338.66;5065479;28;19920;-74
2023/07/30 02:50:25;;;;;;;;;;;;;;;21.69;100.00;99336.00;5069862;28;19960;-73
2023/07/30 02:52:50;;;;;;;;;;;;;;;21.74;100.00;99336.16;5045390;28;19921;-72
2023/07/30 02:55:16;;;;;;;;;;;;;;;21.73;100.00;99328.34;5068745;28;20300;-74
2023/07/30 02:57:41;;;;;;;;;;;;;;;21.74;100.00;99313.88;5065981;28;19921;-74
2023/07/30 03:00:08;;;;;;;;;;;;;;;21.69;100.00;99319.06;5067867;28;19924;-75
2023/07/30 03:02:34;;;;;;;;;;;;;;;21.73;100.00;99314.94;5049772;28;19925;-74
2023/07/30 03:04:59;;;;;;;;;;;;;;;21.65;100.00;99311.47;5074410;28;20027;-74
2023/07/30 03:07:25;;;;;;;;;;;;;;;21.74;100.00;99316.53;5069550;28;19928;-74
2023/07/30 03:09:50;;;;;;;;;;;;;;;21.78;100.00;99317.78;5073212;28;20369;-73
2023/07/30 03:12:16;;;;;;;;;;;;;;;21.80;100.00;99310.28;5053231;28;19921;-74
2023/07/30 03:14:41;;;;;;;;;;;;;;;21.75;100.00;99313.66;5072792;28;19920;-74
2023/07/30 03:17:07;;;;;;;;;;;;;;;21.73;100.00;99323.00;5072952;28;19925;-74
2023/07/30 03:19:32;;;;;;;;;;;;;;;21.72;100.00;99318.66;5070847;28;19993;-73
2023/07/30 03:21:58;;;;;;;;;;;;;;;21.77;100.00;99316.94;5069863;28;19959;-74
2023/07/30 03:24:23;;;;;;;;;;;;;;;21.72;100.00;99313.28;5073974;28;19924;-74
2023/07/30 03:26:48;;;;;;;;;;;;;;;21.58;100.00;99310.69;5067931;28;19920;-73
2023/07/30 03:29:14;;;;;;;;;;;;;;;21.57;100.00;99317.09;5072908;28;19966;-74
2023/07/30 03:31:40;;;;;;;;;;;;;;;21.47;100.00;99316.78;5071323;28;19921;-75
2023/07/30 03:34:05;;;;;;;;;;;;;;;21.43;100.00;99315.59;5071551;28;20019;-74
2023/07/30 03:36:31;;;;;;;;;;;;;;;21.40;100.00;99315.19;5072703;28;19921;-74
2023/07/30 03:38:56;;;;;;;;;;;;;;;21.30;100.00;99321.06;5070588;28;19921;-74
2023/07/30 03:41:22;;;;;;;;;;;;;;;21.32;100.00;99318.97;5067755;28;19928;-74
2023/07/30 03:43:47;;;;;;;;;;;;;;;21.32;100.00;99313.63;5073350;28;19966;-74
2023/07/30 03:46:13;;;;;;;;;;;;;;;21.33;100.00;99325.97;5068289;28;20083;-74
2023/07/30 03:48:38;;;;;;;;;;;;;;;21.33;100.00;99317.91;5072568;28;19927;-75
2023/07/30 03:51:04;;;;;;;;;;;;;;;21.30;100.00;99312.19;5070360;28;20022;-74
2023/07/30 03:53:29;;;;;;;;;;;;;;;21.18;100.00;99317.41;5069972;28;19921;-74
2023/07/30 03:55:55;;;;;;;;;;;;;;;21.18;100.00;99322.78;5070944;28;19958;-73
2023/07/30 03:58:20;;;;;;;;;;;;;;;21.21;100.00;99316.97;5070197;28;19936;-72
2023/07/30 04:00:45;;;;;;;;;;;;;;;21.11;100.00;99324.66;5068782;28;19935;-73
2023/07/30 04:03:11;;;;;;;;;;;;;;;21.15;100.00;99325.88;5073389;28;19920;-73
2023/07/30 04:05:36;;;;;;;;;;;;;;;21.22;100.00;99319.44;5067710;28;19939;-73
2023/07/30 04:08:02;;;;;;;;;;;;;;;21.23;100.00;99322.94;5070895;28;19969;-73
2023/07/30 04:10:27;;;;;;;;;;;;;;;21.28;100.00;99312.38;5068358;28;19931;-73
2023/07/30 04:12:53;;;;;;;;;;;;;;;21.21;100.00;99317.78;5068377;28;19924;-73
2023/07/30 04:15:18;;;;;;;;;;;;;;;21.23;100.00;99326.47;5068993;28;19921;-73
2023/07/30 04:17:43;;;;;;;;;;;;;;;21.26;100.00;99329.75;5073182;28;19965;-73
2023/07/30 04:20:09;;;;;;;;;;;;;;;21.26;100.00;99324.41;5067067;28;20019;-73
2023/07/30 04:22:35;;;;;;;;;;;;;;;21.20;100.00;99321.53;5071566;28;19967;-73
2023/07/30 04:25:02;;;;;;;;;;;;;;;20.99;100.00;99339.78;5069691;28;19928;-73
2023/07/30 04:27:27;;;;;;;;;;;;;;;20.80;100.00;99333.47;5050831;28;19931;-73
2023/07/30 04:29:53;;;;;;;;;;;;;;;20.63;100.00;99335.84;5052638;28;19924;-73
2023/07/30 04:32:18;;;;;;;;;;;;;;;20.52;100.00;99333.81;5049470;28;20353;-73
2023/07/30 04:34:44;;;;;;;;;;;;;;;20.53;100.00;99337.31;5068741;28;19920;-72
2023/07/30 04:37:10;;;;;;;;;;;;;;;20.56;100.00;99339.59;5072048;28;19931;-73
2023/07/30 04:39:36;;;;;;;;;;;;;;;20.67;100.00;99342.44;5066913;28;19928;-73
2023/07/30 04:42:01;;;;;;;;;;;;;;;20.72;100.00;99345.28;5067523;28;19920;-74
2023/07/30 04:44:27;;;;;;;;;;;;;;;20.80;100.00;99342.34;5052516;28;20371;-73
2023/07/30 04:46:57;;;;;;;;;;;;;;;20.87;100.00;99346.88;5067179;28;19920;-75
2023/07/30 04:49:23;;;;;;;;;;;;;;;20.93;100.00;99356.72;5052340;28;19924;-72
2023/07/30 04:51:48;;;;;;;;;;;;;;;20.76;100.00;99357.22;5050297;28;19920;-73
2023/07/30 04:54:17;;;;;;;;;;;;;;;20.69;100.00;99361.78;5067104;28;20014;-74
2023/07/30 04:56:42;;;;;;;;;;;;;;;20.75;100.00;99360.94;5071409;28;19930;-73
2023/07/30 04:59:08;;;;;;;;;;;;;;;20.83;100.00;99360.72;5065810;28;20110;-73
2023/07/30 05:01:33;;;;;;;;;;;;;;;20.91;100.00;99345.41;5065199;28;19963;-74
2023/07/30 05:03:58;;;;;;;;;;;;;;;20.91;100.00;99340.84;5066136;28;19924;-73
2023/07/30 05:06:24;;;;;;;;;;;;;;;20.91;100.00;99348.91;5068790;28;20334;-74
2023/07/30 05:08:49;;;;;;;;;;;;;;;20.93;100.00;99346.00;5066970;28;19920;-74
2023/07/30 05:11:15;;;;;;;;;;;;;;;20.99;100.00;99347.84;5069947;28;19932;-73
2023/07/30 05:13:40;;;;;;;;;;;;;;;21.00;100.00;99357.53;5066053;28;19965;-73
2023/07/30 05:16:06;;;;;;;;;;;;;;;21.01;100.00;99353.81;5069862;28;19943;-73
2023/07/30 05:18:31;;;;;;;;;;;;;;;21.09;100.00;99356.22;5069241;28;19920;-73
2023/07/30 05:20:56;;;;;;;;;;;;;;;21.05;100.00;99365.75;5062974;28;19921;-74
2023/07/30 05:23:22;;;;;;;;;;;;;;;21.02;100.00;99368.88;5064969;28;19943;-74
2023/07/30 05:25:47;;;;;;;;;;;;;;;21.00;100.00;99368.25;5066802;28;19928;-74
2023/07/30 05:28:13;;;;;;;;;;;;;;;21.01;100.00;99364.53;5031805;28;19967;-73
2023/07/30 05:30:38;;;;;;;;;;;;;;;20.96;100.00;99365.19;5071294;28;19940;-73
2023/07/30 05:33:04;;;;;;;;;;;;;;;20.98;100.00;99367.63;5066577;28;19940;-74
2023/07/30 05:35:29;;;;;;;;;;;;;;;20.88;100.00;99364.59;5068839;28;19956;-73
2023/07/30 05:37:55;;;;;;;;;;;;;;;20.92;100.00;99371.19;5069682;28;19926;-73
2023/07/30 05:40:20;;;;;;;;;;;;;;;20.89;100.00;99382.34;5063948;28;20019;-72
2023/07/30 05:42:46;;;;;;;;;;;;;;;20.91;100.00;99369.56;5068502;28;19924;-74
2023/07/30 05:45:11;;;;;;;;;;;;;;;20.90;100.00;99378.63;5067254;28;19921;-74
2023/07/30 05:47:37;;;;;;;;;;;;;;;20.93;100.00;99384.38;5067064;28;20289;-73
2023/07/30 05:50:02;;;;;;;;;;;;;;;20.97;100.00;99390.16;5069332;28;19978;-73
2023/07/30 05:52:28;;;;;;;;;;;;;;;20.93;100.00;99396.97;5070065;28;19921;-73
2023/07/30 05:54:53;;;;;;;;;;;;;;;20.84;100.00;99391.03;5066049;28;19924;-74
2023/07/30 05:57:19;;;;;;;;;;;;;;;20.89;100.00;99387.72;5069609;28;19921;-74
2023/07/30 05:59:44;;;;;;;;;;;;;;;20.89;100.00;99393.06;5067521;28;19974;-74
2023/07/30 06:02:10;;;;;;;;;;;;;;;20.82;100.00;99401.16;5067155;28;19974;-74
2023/07/30 06:04:35;;;;;;;;;;;;;;;20.76;100.00;99397.44;5070238;28;19956;-74
2023/07/30 06:07:02;;;;;;;;;;;;;;;20.77;100.00;99396.44;5065996;28;19920;-73
2023/07/30 06:09:28;;;;;;;;;;;;;;;20.85;100.00;99403.41;5068047;28;19929;-74
2023/07/30 06:11:56;;;;;;;;;;;;;;;20.94;100.00;99401.31;5066855;28;19921;-74
2023/07/30 06:14:21;;;;;;;;;;;;;;;21.04;100.00;99401.66;5065425;28;19966;-73
2023/07/30 06:16:46;;;;;;;;;;;;;;;21.08;100.00;99402.91;5067426;28;19924;-73
2023/07/30 06:19:12;;;;;;;;;;;;;;;21.15;100.00;99404.53;5070747;28;19927;-72
2023/07/30 06:21:37;;;;;;;;;;;;;;;21.19;100.00;99405.75;5065658;28;19963;-73
2023/07/30 06:24:03;;;;;;;;;;;;;;;21.09;100.00;99410.72;5068431;28;19924;-74
2023/07/30 06:26:28;;;;;;;;;;;;;;;21.05;100.00;99398.78;5068492;28;19920;-74
2023/07/30 06:28:54;;;;;;;;;;;;;;;21.13;100.00;99403.06;5066192;28;19925;-74
2023/07/30 06:31:19;;;;;;;;;;;;;;;21.21;100.00;99402.84;5070245;28;19997;-74
2023/07/30 06:33:45;;;;;;;;;;;;;;;21.30;100.00;99400.75;5061973;28;20003;-74
2023/07/30 06:36:10;;;;;;;;;;;;;;;21.41;100.00;99406.25;5064125;28;20011;-76
2023/07/30 06:38:35;;;;;;;;;;;;;;;21.44;100.00;99397.75;5068417;28;20011;-73
2023/07/30 06:41:01;;;;;;;;;;;;;;;21.51;100.00;99403.91;5059162;28;19959;-75
2023/07/30 06:43:26;;;;;;;;;;;;;;;21.57;100.00;99392.28;5066769;28;19964;-76
2023/07/30 06:45:52;;;;;;;;;;;;;;;21.52;100.00;99400.19;5038386;22;19926;-79
2023/07/30 06:48:18;;;;;;;;;;;;;;;21.58;100.00;99399.31;5010784;28;19921;-76
2023/07/30 06:50:43;;;;;;;;;;;;;;;21.73;100.00;99395.50;5009804;28;19928;-77
2023/07/30 06:53:08;;;;;;;;;;;;;;;21.84;100.00;99405.53;5010769;28;19948;-76
2023/07/30 06:55:34;;;;;;;;;;;;;;;21.92;100.00;99408.75;5010693;28;19921;-78
2023/07/30 06:57:59;;;;;;;;;;;;;;;21.94;100.00;99411.22;5008594;28;19928;-78
2023/07/30 07:00:24;;;;;;;;;;;;;;;21.99;100.00;99411.41;4998883;28;19929;-78
2023/07/30 07:02:50;;;;;;;;;;;;;;;22.03;100.00;99405.38;5006002;28;19976;-78
2023/07/30 07:05:15;;;;;;;;;;;;;;;22.11;100.00;99403.47;5007599;28;20377;-81
2023/07/30 07:07:40;;;;;;;;;;;;;;;22.16;100.00;99406.31;5006021;28;19929;-80
2023/07/30 07:10:06;;;;;;;;;;;;;;;22.17;100.00;99408.78;5004157;28;20016;-80
2023/07/30 07:12:31;;;;;;;;;;;;;;;22.18;100.00;99421.19;5005849;28;20052;-81
2023/07/30 07:14:58;;;;;;;;;;;;;;;22.20;100.00;99423.66;5006603;28;20345;-78
2023/07/30 07:17:24;;;;;;;;;;;;;;;22.28;100.00;99421.50;5007357;28;20436;-80
2023/07/30 07:19:49;;;;;;;;;;;;;;;22.28;100.00;99410.72;5006142;28;19929;-80
2023/07/30 07:22:14;;;;;;;;;;;;;;;22.37;100.00;99414.78;5008210;28;19921;-77
2023/07/30 07:24:40;;;;;;;;;;;;;;;22.43;100.00;99413.91;5005107;28;19941;-79
2023/07/30 07:27:05;;;;;;;;;;;;;;;22.53;100.00;99407.19;5006201;28;19925;-80
2023/07/30 07:29:30;;;;;;;;;;;;;;;22.61;100.00;99409.59;5004121;28;20011;-81
2023/07/30 07:31:56;;;;;;;;;;;;;;;22.67;100.00;99403.31;5002705;28;19926;-78
2023/07/30 07:34:21;;;;;;;;;;;;;;;22.70;100.00;99413.59;5004453;28;19921;-78
2023/07/30 07:36:47;;;;;;;;;;;;;;;22.70;100.00;99416.28;5005936;28;19921;-76
2023/07/30 07:39:12;;;;;;;;;;;;;;;22.81;100.00;99410.19;5009991;28;19970;-76
2023/07/30 07:41:37;;;;;;;;;;;;;;;22.88;100.00;99410.94;5009570;28;19960;-76
2023/07/30 07:44:03;;;;;;;;;;;;;;;22.87;100.00;99409.28;5008265;28;20472;-74
2023/07/30 07:46:28;;;;;;;;;;;;;;;22.88;100.00;99410.94;5009871;28;19922;-77
2023/07/30 07:48:54;;;;;;;;;;;;;;;22.84;100.00;99415.97;5009741;28;19921;-77
2023/07/30 07:51:19;;;;;;;;;;;;;;;22.60;100.00;99410.63;5013160;28;19980;-77
2023/07/30 07:53:44;;;;;;;;;;;;;;;22.50;100.00;99413.00;5013448;28;20101;-76
2023/07/30 07:56:10;;;;;;;;;;;;;;;22.49;100.00;99414.06;5013132;28;19921;-76
2023/07/30 07:58:36;;;;;;;;;;;;;;;22.45;100.00;99411.78;5013655;28;19921;-76
2023/07/30 08:01:01;;;;;;;;;;;;;;;22.41;100.00;99421.38;5012796;28;20378;-77
2023/07/30 08:03:26;;;;;;;;;;;;;;;22.48;100.00;99420.47;5012025;28;19926;-75
2023/07/30 08:05:52;;;;;;;;;;;;;;;22.57;100.00;99419.94;5002170;28;19921;-78
2023/07/30 08:08:17;;;;;;;;;;;;;;;22.68;100.00;99426.47;5012656;28;20008;-76
2023/07/30 08:10:44;;;;;;;;;;;;;;;22.80;100.00;99419.31;5010830;28;19996;-78
2023/07/30 08:13:10;;;;;;;;;;;;;;;22.90;100.00;99411.53;5009215;28;19957;-80
2023/07/30 08:15:35;;;;;;;;;;;;;;;23.03;100.00;99413.25;5013186;28;20412;-78
2023/07/30 08:18:01;;;;;;;;;;;;;;;23.17;100.00;99410.16;5012466;28;20337;-80
2023/07/30 08:20:26;;;;;;;;;;;;;;;23.27;100.00;99413.09;5012796;28;20263;-79
2023/07/30 08:22:51;;;;;;;;;;;;;;;23.37;100.00;99409.06;5012460;28;20329;-78
2023/07/30 08:25:17;;;;;;;;;;;;;;;23.45;100.00;99411.41;5013215;28;19922;-78
2023/07/30 08:27:42;;;;;;;;;;;;;;;23.56;100.00;99413.38;5005100;28;19929;-77
2023/07/30 08:30:08;;;;;;;;;;;;;;;23.58;100.00;99406.69;5010158;28;19980;-79
2023/07/30 08:32:33;;;;;;;;;;;;;;;23.64;100.00;99407.63;5012546;28;20020;-79
2023/07/30 08:34:58;;;;;;;;;;;;;;;23.73;100.00;99398.19;5010742;28;19921;-78
2023/07/30 08:37:24;;;;;;;;;;;;;;;23.65;100.00;99390.44;4995308;28;19930;-78
2023/07/30 08:39:49;;;;;;;;;;;;;;;23.73;100.00;99392.78;5011969;28;20393;-79
2023/07/30 08:42:14;;;;;;;;;;;;;;;23.75;100.00;99390.66;5012905;28;20370;-78
2023/07/30 08:44:40;;;;;;;;;;;;;;;23.82;100.00;99388.69;5012714;28;19923;-79
2023/07/30 08:47:05;;;;;;;;;;;;;;;23.89;100.00;99391.28;5011293;28;19932;-78
2023/07/30 08:49:32;;;;;;;;;;;;;;;23.93;100.00;99387.88;4994477;28;19922;-77
2023/07/30 08:51:58;;;;;;;;;;;;;;;23.88;100.00;99389.63;5011959;28;19921;-79
2023/07/30 08:54:24;;;;;;;;;;;;;;;23.97;100.00;99389.09;5012034;28;20297;-78
2023/07/30 08:56:49;;;;;;;;;;;;;;;24.08;100.00;99385.56;5012180;28;19922;-78
2023/07/30 08:59:15;;;;;;;;;;;;;;;24.21;100.00;99384.50;4994860;28;19928;-78
2023/07/30 09:01:42;;;;;;;;;;;;;;;24.22;100.00;99388.84;5011613;28;19924;-76
2023/07/30 09:04:08;;;;;;;;;;;;;;;24.19;100.00;99391.22;5010249;28;20009;-75
2023/07/30 09:06:34;;;;;;;;;;;;;;;24.25;100.00;99384.88;5012280;28;19929;-77
2023/07/30 09:08:59;;;;;;;;;;;;;;;24.23;100.00;99387.00;5011801;28;19922;-77
2023/07/30 09:11:26;;;;;;;;;;;;;;;24.27;100.00;99382.78;5010953;28;19929;-76
2023/07/30 09:13:53;;;;;;;;;;;;;;;24.29;100.00;99380.66;5011589;28;20012;-75
2023/07/30 09:16:18;;;;;;;;;;;;;;;24.33;100.00;99368.34;5011893;28;20425;-79
2023/07/30 09:18:44;;;;;;;;;;;;;;;24.40;100.00;99372.56;5010688;28;20092;-79
2023/07/30 09:21:10;;;;;;;;;;;;;;;24.47;100.00;99377.81;5011518;28;19925;-81
2023/07/30 09:23:40;;;;;;;;;;;;;;;24.49;100.00;99370.31;5012512;28;19921;-78
2023/07/30 09:26:06;;;;;;;;;;;;;;;24.56;100.00;99370.19;5011222;28;19926;-76
2023/07/30 09:28:31;;;;;;;;;;;;;;;24.63;100.00;99363.59;5011694;28;19955;-78
2023/07/30 09:31:00;;;;;;;;;;;;;;;24.65;100.00;99363.38;5011535;28;20020;-79
2023/07/30 09:33:26;;;;;;;;;;;;;;;24.70;100.00;99366.97;5010241;28;19921;-79
2023/07/30 09:35:53;;;;;;;;;;;;;;;24.78;100.00;99366.63;5010876;28;19979;-78
2023/07/30 09:38:19;;;;;;;;;;;;;;;24.85;100.00;99363.78;5011199;28;19928;-81
2023/07/30 09:40:49;;;;;;;;;;;;;;;24.88;100.00;99364.16;5011219;28;20008;-77
2023/07/30 09:43:14;;;;;;;;;;;;;;;24.81;100.00;99358.03;5005138;28;19921;-81
2023/07/30 09:45:39;;;;;;;;;;;;;;;24.92;100.00;99355.59;5011689;28;20408;-80
2023/07/30 09:48:05;;;;;;;;;;;;;;;24.99;100.00;99359.75;5010907;28;19955;-77
2023/07/30 09:50:31;;;;;;;;;;;;;;;25.06;100.00;99349.63;5010365;28;20439;-79
2023/07/30 09:52:58;;;;;;;;;;;;;;;25.10;100.00;99350.78;5010709;28;19925;-79
2023/07/30 09:55:24;;;;;;;;;;;;;;;25.20;100.00;99355.56;5011300;28;19921;-81
2023/07/30 09:57:49;;;;;;;;;;;;;;;25.29;100.00;99351.41;5011696;28;20023;-81
2023/07/30 10:00:14;;;;;;;;;;;;;;;25.36;100.00;99357.47;5011530;28;19976;-81
2023/07/30 10:02:44;;;;;;;;;;;;;;;25.35;100.00;99352.31;5011754;28;19925;-77
2023/07/30 10:05:12;;;;;;;;;;;;;;;25.38;100.00;99352.66;5009657;28;19925;-77
2023/07/30 10:07:41;;;;;;;;;;;;;;;25.42;100.00;99343.00;4989546;28;19922;-90
2023/07/30 10:10:07;;;;;;;;;;;;;;;25.48;100.00;99344.72;5012597;28;19921;-83
2023/07/30 10:12:34;;;;;;;;;;;;;;;25.52;100.00;99345.88;4992641;28;19988;-81
2023/07/30 10:15:00;;;;;;;;;;;;;;;25.59;100.00;99343.84;5010434;28;20349;-80
2023/07/30 10:17:25;;;;;;;;;;;;;;;25.63;100.00;99345.00;5008797;28;19968;-81
2023/07/30 10:19:51;;;;;;;;;;;;;;;25.72;100.00;99352.72;5010165;28;19929;-82
2023/07/30 10:22:20;;;;;;;;;;;;;;;25.78;100.00;99335.50;5009727;28;20378;-83
2023/07/30 10:24:59;;;;;;;;;;;;;;;25.85;100.00;99344.28;5010784;28;19947;-82
2023/07/30 10:27:25;;;;;;;;;;;;;;;25.89;100.00;99342.72;5011253;28;19928;-82
2023/07/30 10:30:07;;;;;;;;;;;;;;;25.94;100.00;99340.91;4991615;28;19928;-82
2023/07/30 10:32:57;;;;;;;;;;;;;;;26.00;100.00;99333.69;5010891;28;20366;-82
2023/07/30 10:35:34;;;;;;;;;;;;;;;26.04;100.00;99334.81;5007469;28;20012;-82
2023/07/30 10:38:00;;;;;;;;;;;;;;;26.09;100.00;99326.78;5010545;28;20289;-82
2023/07/30 10:40:25;;;;;;;;;;;;;;;26.18;100.00;99319.88;5010415;28;19928;-83
2023/07/30 10:42:51;;;;;;;;;;;;;;;26.22;100.00;99318.31;5009987;28;19929;-82
2023/07/30 10:45:16;;;;;;;;;;;;;;;26.27;100.00;99315.69;5010671;28;20285;-82
2023/07/30 10:47:41;;;;;;;;;;;;;;;26.33;100.00;99313.91;5010643;28;19922;-83
2023/07/30 10:50:07;;;;;;;;;;;;;;;26.38;100.00;99309.38;5009787;28;19922;-81
2023/07/30 10:52:35;;;;;;;;;;;;;;;26.40;100.00;99301.81;5010881;28;19943;-82
2023/07/30 10:55:00;;;;;;;;;;;;;;;26.42;100.00;99299.69;5010028;28;20449;-81
2023/07/30 10:57:32;;;;;;;;;;;;;;;26.51;100.00;99308.16;5010019;28;20016;-82
2023/07/30 10:59:59;;;;;;;;;;;;;;;26.55;100.00;99303.06;5009881;28;20378;-82
2023/07/30 11:02:24;;;;;;;;;;;;;;;26.60;100.00;99295.00;5010588;28;20459;-83
2023/07/30 11:04:50;;;;;;;;;;;;;;;26.64;100.00;99299.66;5004818;28;19960;-82
2023/07/30 11:07:19;;;;;;;;;;;;;;;26.71;100.00;99291.34;5009196;28;19925;-84
2023/07/30 11:09:44;;;;;;;;;;;;;;;26.80;100.00;99295.25;5009795;28;19976;-82
2023/07/30 11:12:11;;;;;;;;;;;;;;;26.79;100.00;99294.44;5009966;28;20612;-82
2023/07/30 11:14:36;;;;;;;;;;;;;;;26.93;100.00;99294.03;5010329;28;19928;-81
2023/07/30 11:17:02;;;;;;;;;;;;;;;27.01;100.00;99293.59;5007005;28;19964;-80
2023/07/30 11:19:28;;;;;;;;;;;;;;;27.02;100.00;99293.34;5008368;28;20290;-82
2023/07/30 11:21:54;;;;;;;;;;;;;;;27.02;100.00;99287.94;5008095;28;19922;-82
2023/07/30 11:24:20;;;;;;;;;;;;;;;27.05;100.00;99290.09;5011302;28;19921;-85
2023/07/30 11:26:56;;;;;;;;;;;;;;;27.08;100.00;99291.50;5013989;28;19921;-82
2023/07/30 11:29:21;;;;;;;;;;;;;;;27.12;100.00;99295.31;5014843;28;19972;-81
2023/07/30 11:31:47;;;;;;;;;;;;;;;27.17;100.00;99290.75;5014154;28;19964;-82
2023/07/30 11:34:13;;;;;;;;;;;;;;;27.24;100.00;99285.13;5012945;28;20297;-82
2023/07/30 11:36:39;;;;;;;;;;;;;;;27.30;100.00;99278.69;5013881;28;19921;-82
2023/07/30 11:39:05;;;;;;;;;;;;;;;27.38;100.00;99280.13;5005693;28;20021;-84
2023/07/30 11:41:30;;;;;;;;;;;;;;;27.48;100.00;99281.00;5011686;28;20020;-83
2023/07/30 11:43:56;;;;;;;;;;;;;;;27.55;100.00;99280.81;5013571;28;20016;-83
2023/07/30 11:46:22;;;;;;;;;;;;;;;27.62;100.00;99281.44;5009568;28;19979;-82
2023/07/30 11:48:49;;;;;;;;;;;;;;;27.70;100.00;99275.50;5013393;28;20389;-83
2023/07/30 11:51:28;;;;;;;;;;;;;;;27.77;99.29;99278.81;5013575;28;20289;-82
2023/07/30 11:53:56;;;;;;;;;;;;;;;27.83;100.00;99274.22;5013693;28;19921;-83
2023/07/30 11:56:25;;;;;;;;;;;;;;;27.91;100.00;99269.16;5009667;28;20349;-83
2023/07/30 11:58:55;;;;;;;;;;;;;;;28.04;95.69;99263.22;5012155;28;20318;-82
2023/07/30 12:01:22;;;;;;;;;;;;;;;28.17;95.75;99267.41;5014072;28;19921;-80
2023/07/30 12:03:48;;;;;;;;;;;;;;;28.26;94.64;99265.81;5029400;28;19921;-82
2023/07/30 12:06:13;;;;;;;;;;;;;;;28.34;95.91;99267.19;5019180;28;20267;-82
2023/07/30 12:08:38;;;;;;;;;;;;;;;28.50;95.44;99263.47;5013359;28;20004;-84
2023/07/30 12:11:08;;;;;;;;;;;;;;;28.65;94.90;99257.25;5017101;28;19930;-83
2023/07/30 12:13:33;;;;;;;;;;;;;;;28.85;93.11;99252.75;5014085;28;20314;-83
2023/07/30 12:15:59;;;;;;;;;;;;;;;29.06;90.53;99247.31;5012921;28;20020;-81
2023/07/30 12:18:25;;;;;;;;;;;;;;;29.29;85.86;99242.16;5012185;28;19955;-82
2023/07/30 12:20:51;;;;;;;;;;;;;;;29.40;83.00;99232.13;5010922;28;19964;-81
2023/07/30 12:23:17;;;;;;;;;;;;;;;29.61;84.32;99233.75;4996425;28;19921;-80
2023/07/30 12:25:42;;;;;;;;;;;;;;;29.90;85.01;99227.69;5014065;28;19922;-81
2023/07/30 12:28:07;;;;;;;;;;;;;;;30.14;82.55;99228.72;5013038;28;19926;-81
2023/07/30 12:30:33;;;;;;;;;;;;;;;30.41;82.84;99229.13;5013376;28;19925;-81